Time;durP1;ratioP1;P1;durP2;ratioP2;P2;SDS_P1;SDS_P2;PMS_P1;PMS_P2;Temp;Humidity;BMP_temperature;BMP_pressure;BME280_temperature;BME280_humidity;BME280_pressure;Samples;Min_cycle;Max_cycle;Signal;HPM_P1;HPM_P2
2023/09/10 00:01:34;;;;;;;7.97;7.18;;;25.60;59.40;27.20;101613.00;;;;5111852;28;20200;-88
2023/09/10 00:04:03;;;;;;;9.35;7.50;;;25.60;59.40;27.20;101607.00;;;;5109820;28;20585;-88
2023/09/10 00:06:32;;;;;;;8.27;7.47;;;25.60;59.40;27.20;101615.00;;;;5092139;28;20202;-88
2023/09/10 00:09:01;;;;;;;7.93;7.03;;;25.50;59.40;27.10;101619.00;;;;5110532;28;20808;-88
2023/09/10 00:11:29;;;;;;;8.13;7.32;;;25.60;59.60;27.20;101613.00;;;;5110850;28;20205;-88
2023/09/10 00:13:56;;;;;;;8.02;7.22;;;25.50;59.50;27.10;101614.00;;;;5110128;28;20189;-89
2023/09/10 00:16:26;;;;;;;8.30;7.50;;;25.50;59.50;27.10;101616.00;;;;5110556;28;20209;-88
2023/09/10 00:18:54;;;;;;;9.05;8.15;;;25.50;59.60;27.10;101624.00;;;;5097627;28;20201;-88
2023/09/10 00:21:21;;;;;;;8.15;7.38;;;25.50;59.50;27.10;101614.00;;;;5105032;28;20213;-88
2023/09/10 00:23:49;;;;;;;10.40;8.07;;;25.50;59.50;27.10;101608.00;;;;5109823;28;20217;-88
2023/09/10 00:26:17;;;;;;;8.30;7.50;;;25.50;59.60;27.10;101608.00;;;;5109469;28;20209;-88
2023/09/10 00:28:44;;;;;;;9.27;7.28;;;25.40;59.50;27.10;101612.00;;;;5106171;28;20212;-88
2023/09/10 00:31:11;;;;;;;8.65;7.75;;;25.40;59.50;27.10;101613.00;;;;5091420;28;20585;-88
2023/09/10 00:33:39;;;;;;;8.40;7.50;;;25.40;59.60;27.00;101615.00;;;;5093645;28;20203;-88
2023/09/10 00:36:08;;;;;;;8.23;7.38;;;25.40;59.60;27.00;101608.00;;;;5109314;28;20207;-88
2023/09/10 00:38:35;;;;;;;8.23;7.43;;;25.40;59.60;27.00;101601.00;;;;5102114;28;20202;-88
2023/09/10 00:41:06;;;;;;;9.25;8.10;;;25.30;59.70;27.00;101605.00;;;;5111156;28;20190;-88
2023/09/10 00:43:34;;;;;;;10.55;6.97;;;25.30;59.70;27.00;101604.00;;;;5110938;28;20655;-88
2023/09/10 00:46:04;;;;;;;7.95;7.20;;;25.30;59.80;27.00;101604.00;;;;5098123;28;20197;-88
2023/09/10 00:48:32;;;;;;;9.68;7.25;;;25.30;59.80;26.90;101602.00;;;;5108529;28;20197;-88
2023/09/10 00:51:02;;;;;;;9.43;6.72;;;25.30;59.80;26.90;101612.00;;;;5111487;28;20651;-88
2023/09/10 00:53:31;;;;;;;7.15;6.45;;;25.20;60.40;26.90;101595.00;;;;5096354;28;20324;-87
2023/09/10 00:55:58;;;;;;;7.70;7.00;;;25.30;59.80;26.90;101606.00;;;;5100839;28;20198;-88
2023/09/10 00:58:26;;;;;;;8.75;7.63;;;25.20;59.80;26.90;101604.00;;;;5091323;28;20554;-87
2023/09/10 01:00:55;;;;;;;7.60;6.90;;;25.20;59.80;26.90;101599.00;;;;5110473;28;20236;-89
2023/09/10 01:03:26;;;;;;;8.00;7.20;;;25.20;59.90;26.80;101597.00;;;;5111317;28;20285;-87
2023/09/10 01:06:02;;;;;;;9.45;7.63;;;25.20;59.90;26.80;101604.00;;;;5105666;28;20651;-88
2023/09/10 01:08:31;;;;;;;13.10;8.05;;;25.20;60.10;26.80;101608.00;;;;5109190;28;20259;-88
2023/09/10 01:11:08;;;;;;;7.88;7.10;;;25.20;60.00;26.70;101607.00;;;;5109277;28;20190;-88
2023/09/10 01:13:52;;;;;;;8.25;7.45;;;25.20;60.10;26.70;101609.00;;;;5106475;28;20189;-88
2023/09/10 01:16:30;;;;;;;8.15;7.35;;;25.20;60.20;26.70;101607.00;;;;5109789;28;20197;-88
2023/09/10 01:19:08;;;;;;;8.57;7.60;;;25.20;60.00;26.70;101618.00;;;;5109690;28;20659;-89
2023/09/10 01:21:56;;;;;;;7.47;6.78;;;25.10;60.10;26.60;101618.00;;;;5112166;28;20532;-88
2023/09/10 01:24:38;;;;;;;8.43;7.15;;;25.10;60.40;26.70;101609.00;;;;5098417;28;20225;-87
2023/09/10 01:27:06;;;;;;;7.65;6.95;;;25.10;60.10;26.70;101616.00;;;;5104817;28;20197;-88
2023/09/10 01:29:34;;;;;;;7.50;6.80;;;25.10;60.00;26.70;101616.00;;;;5096145;28;20660;-87
2023/09/10 01:32:06;;;;;;;7.88;6.50;;;25.10;60.10;26.70;101608.00;;;;5091910;28;20232;-88
2023/09/10 01:34:43;;;;;;;7.43;6.68;;;25.00;60.10;26.60;101606.00;;;;5097633;28;20209;-87
2023/09/10 01:37:21;;;;;;;7.55;6.85;;;25.00;60.30;26.60;101601.00;;;;5098238;28;20543;-88
2023/09/10 01:39:54;;;;;;;8.63;7.82;;;25.00;60.20;26.60;101609.00;;;;5106295;28;20284;-88
2023/09/10 01:42:24;;;;;;;9.43;7.25;;;25.00;60.20;26.60;101615.00;;;;5099091;28;20582;-88
2023/09/10 01:44:53;;;;;;;7.18;6.45;;;25.00;60.20;26.60;101598.00;;;;5103358;28;20229;-88
2023/09/10 01:47:21;;;;;;;8.90;6.57;;;25.00;60.20;26.60;101615.00;;;;5098895;28;20197;-87
2023/09/10 01:49:48;;;;;;;6.90;6.30;;;25.00;60.20;26.60;101614.00;;;;5103834;28;20201;-88
2023/09/10 01:52:16;;;;;;;7.85;7.05;;;25.00;60.20;26.60;101617.00;;;;5110795;28;20186;-88
2023/09/10 01:54:48;;;;;;;8.65;7.80;;;25.00;60.30;26.60;101616.00;;;;5112954;28;20209;-88
2023/09/10 01:57:17;;;;;;;7.93;7.13;;;25.00;60.30;26.60;101616.00;;;;5112088;28;20228;-88
2023/09/10 01:59:49;;;;;;;7.97;7.25;;;24.90;60.20;26.60;101616.00;;;;5100630;28;20221;-88
2023/09/10 02:02:21;;;;;;;7.00;6.32;;;24.90;60.30;26.60;101609.00;;;;5097771;28;20209;-89
2023/09/10 02:04:49;;;;;;;9.57;6.72;;;24.90;60.30;26.60;101598.00;;;;5108726;28;20217;-88
2023/09/10 02:07:22;;;;;;;7.13;6.43;;;24.90;60.20;26.50;101613.00;;;;5113959;28;20569;-87
2023/09/10 02:09:59;;;;;;;7.18;6.15;;;24.90;60.50;26.50;101617.00;;;;5114939;28;20217;-88
2023/09/10 02:12:27;;;;;;;7.43;6.72;;;24.90;60.50;26.60;101617.00;;;;5110016;28;20231;-88
2023/09/10 02:14:59;;;;;;;7.65;6.88;;;24.90;60.20;26.50;101620.00;;;;5104406;28;20209;-87
2023/09/10 02:17:27;;;;;;;9.10;8.13;;;24.90;60.40;26.50;101621.00;;;;5098815;28;20204;-89
2023/09/10 02:19:56;;;;;;;7.43;6.65;;;24.90;60.30;26.50;101624.00;;;;5125185;28;20189;-88
2023/09/10 02:22:24;;;;;;;7.68;6.38;;;24.90;60.30;26.50;101626.00;;;;5102928;28;20217;-88
2023/09/10 02:24:52;;;;;;;7.20;6.55;;;24.90;60.30;26.50;101626.00;;;;5111528;28;20587;-89
2023/09/10 02:27:20;;;;;;;6.97;6.38;;;24.90;60.30;26.50;101626.00;;;;5114181;28;20209;-89
2023/09/10 02:29:49;;;;;;;6.70;6.10;;;24.90;60.50;26.50;101620.00;;;;5100934;28;20183;-88
2023/09/10 02:32:16;;;;;;;7.50;6.72;;;24.90;60.50;26.50;101627.00;;;;5111689;28;20194;-88
2023/09/10 02:34:44;;;;;;;8.50;6.53;;;24.80;60.40;26.50;101622.00;;;;5106291;28;20568;-88
2023/09/10 02:37:15;;;;;;;7.80;7.00;;;24.80;60.50;26.40;101617.00;;;;5113746;28;20658;-87
2023/09/10 02:39:44;;;;;;;7.57;6.78;;;24.80;60.60;26.40;101619.00;;;;5097325;28;20256;-88
2023/09/10 02:42:13;;;;;;;7.55;6.75;;;24.80;60.50;26.40;101618.00;;;;5105955;28;20198;-88
2023/09/10 02:44:42;;;;;;;7.65;6.93;;;24.80;60.60;26.40;101613.00;;;;5103153;28;20221;-88
2023/09/10 02:47:10;;;;;;;10.73;7.32;;;24.80;60.60;26.40;101615.00;;;;5113951;28;20280;-87
2023/09/10 02:49:37;;;;;;;6.75;6.15;;;24.70;60.50;26.40;101603.00;;;;5113631;28;20198;-88
2023/09/10 02:52:05;;;;;;;7.22;6.63;;;24.70;60.50;26.40;101608.00;;;;5105512;28;20208;-88
2023/09/10 02:54:34;;;;;;;7.88;7.07;;;24.70;60.60;26.40;101609.00;;;;5113251;28;20186;-89
2023/09/10 02:57:04;;;;;;;7.85;7.10;;;24.70;60.60;26.30;101614.00;;;;5109803;28;20198;-88
2023/09/10 02:59:31;;;;;;;7.13;6.43;;;24.70;60.70;26.40;101618.00;;;;5110307;28;20225;-87
2023/09/10 03:02:00;;;;;;;8.25;7.43;;;24.70;60.60;26.30;101614.00;;;;5107076;28;20198;-88
2023/09/10 03:04:33;;;;;;;7.88;7.13;;;24.70;60.80;26.30;101606.00;;;;5112208;28;20225;-88
2023/09/10 03:07:02;;;;;;;9.27;6.82;;;24.70;60.90;26.30;101609.00;;;;5112585;28;20201;-87
2023/09/10 03:09:29;;;;;;;8.20;7.43;;;24.70;60.80;26.30;101607.00;;;;5113237;28;20221;-88
2023/09/10 03:12:19;;;;;;;8.95;8.05;;;24.70;60.80;26.20;101608.00;;;;5113326;28;20240;-87
2023/09/10 03:14:46;;;;;;;7.95;7.15;;;24.70;60.80;26.30;101603.00;;;;5112805;28;20198;-88
2023/09/10 03:17:16;;;;;;;7.80;7.10;;;24.70;60.80;26.30;101612.00;;;;5110833;28;20200;-87
2023/09/10 03:19:43;;;;;;;8.10;7.32;;;24.70;60.80;26.30;101600.00;;;;5114142;28;20208;-88
2023/09/10 03:22:11;;;;;;;9.05;7.20;;;24.70;60.80;26.30;101604.00;;;;5109324;28;20745;-89
2023/09/10 03:24:38;;;;;;;8.00;7.15;;;24.60;60.80;26.30;101605.00;;;;5095622;28;20234;-88
2023/09/10 03:27:06;;;;;;;7.75;7.00;;;24.60;60.80;26.30;101601.00;;;;5108692;28;20194;-88
2023/09/10 03:29:34;;;;;;;7.35;6.65;;;24.60;60.90;26.30;101592.00;;;;5112798;28;20209;-88
2023/09/10 03:32:03;;;;;;;7.25;6.60;;;24.60;60.90;26.30;101593.00;;;;5113471;28;20193;-88
2023/09/10 03:34:31;;;;;;;8.43;6.90;;;24.60;60.90;26.30;101599.00;;;;5112413;28;20663;-88
2023/09/10 03:36:59;;;;;;;7.60;6.80;;;24.60;60.90;26.30;101592.00;;;;5112970;28;20186;-88
2023/09/10 03:39:27;;;;;;;7.25;6.60;;;24.60;60.90;26.30;101584.00;;;;5113416;28;20189;-89
2023/09/10 03:41:56;;;;;;;7.82;7.13;;;24.60;60.90;26.30;101586.00;;;;5113440;28;20201;-89
2023/09/10 03:44:24;;;;;;;7.60;6.90;;;24.60;60.90;26.20;101584.00;;;;5112739;27;20201;-89
2023/09/10 03:46:52;;;;;;;8.85;7.95;;;24.60;60.90;26.20;101582.00;;;;5096806;28;20203;-89
2023/09/10 03:49:21;;;;;;;8.55;7.40;;;24.60;60.90;26.20;101588.00;;;;5100377;28;20192;-88
2023/09/10 03:51:50;;;;;;;7.97;7.28;;;24.60;61.00;26.20;101586.00;;;;5113573;28;20205;-88
2023/09/10 03:54:19;;;;;;;8.23;7.43;;;24.60;61.00;26.20;101588.00;;;;5113285;28;20207;-88
2023/09/10 03:56:47;;;;;;;8.18;7.38;;;24.60;61.00;26.20;101593.00;;;;5111192;28;20190;-89
2023/09/10 03:59:14;;;;;;;8.27;7.20;;;24.60;61.00;26.20;101586.00;;;;5113383;27;20224;-89
2023/09/10 04:01:41;;;;;;;7.50;6.88;;;24.60;61.00;26.20;101587.00;;;;5119377;27;20197;-88
2023/09/10 04:04:10;;;;;;;7.90;7.10;;;24.60;61.00;26.20;101584.00;;;;5093313;28;20198;-88
2023/09/10 04:06:38;;;;;;;8.02;7.22;;;24.50;61.00;26.20;101585.00;;;;5103604;28;20224;-88
2023/09/10 04:09:07;;;;;;;9.63;7.63;;;24.50;61.00;26.10;101580.00;;;;5092714;28;20220;-88
2023/09/10 04:11:35;;;;;;;8.88;8.07;;;24.50;61.00;26.10;101579.00;;;;5101225;28;20560;-89
2023/09/10 04:14:03;;;;;;;7.90;7.13;;;24.50;61.10;26.10;101581.00;;;;5111537;28;20193;-88
2023/09/10 04:16:31;;;;;;;8.93;8.02;;;24.50;61.10;26.10;101575.00;;;;5110300;28;20200;-88
2023/09/10 04:18:58;;;;;;;11.48;7.85;;;24.50;61.10;26.10;101585.00;;;;5102097;28;20208;-88
2023/09/10 04:21:29;;;;;;;8.70;7.90;;;24.50;61.10;26.00;101582.00;;;;5111892;28;20581;-88
2023/09/10 04:23:56;;;;;;;8.80;7.70;;;24.40;61.30;26.10;101586.00;;;;5112936;28;20194;-88
2023/09/10 04:26:24;;;;;;;8.45;7.55;;;24.40;61.10;26.00;101590.00;;;;5108248;28;20259;-89
2023/09/10 04:28:53;;;;;;;8.80;7.63;;;24.40;61.20;26.00;101571.00;;;;5092444;28;20190;-87
2023/09/10 04:31:20;;;;;;;8.23;7.43;;;24.40;61.20;26.00;101584.00;;;;5102725;28;20197;-89
2023/09/10 04:33:48;;;;;;;7.97;7.18;;;24.40;61.20;26.00;101585.00;;;;5112376;28;20201;-89
2023/09/10 04:36:16;;;;;;;8.90;7.88;;;24.40;61.20;26.00;101586.00;;;;5103455;28;20186;-88
2023/09/10 04:38:44;;;;;;;8.73;7.95;;;24.30;61.30;25.90;101586.00;;;;5102946;28;20224;-88
2023/09/10 04:41:17;;;;;;;9.18;8.20;;;24.30;61.20;25.90;101584.00;;;;5109673;28;20190;-88
2023/09/10 04:43:49;;;;;;;8.65;7.85;;;24.30;61.50;25.90;101595.00;;;;5097741;28;20201;-88
2023/09/10 04:46:16;;;;;;;7.80;7.10;;;24.30;61.50;25.90;101588.00;;;;5110319;28;20225;-88
2023/09/10 04:48:45;;;;;;;8.93;8.13;;;24.30;61.30;25.90;101586.00;;;;5092628;28;20193;-89
2023/09/10 04:51:12;;;;;;;8.77;7.97;;;24.20;61.40;25.90;101584.00;;;;5111125;28;20540;-88
2023/09/10 04:53:39;;;;;;;8.88;7.97;;;24.20;61.40;25.80;101582.00;;;;5105858;28;20190;-88
2023/09/10 04:56:09;;;;;;;8.18;7.38;;;24.20;61.50;25.80;101589.00;;;;5104803;28;20193;-88
2023/09/10 04:58:37;;;;;;;12.45;7.93;;;24.20;61.60;25.80;101588.00;;;;5111321;28;20206;-88
2023/09/10 05:01:13;;;;;;;9.02;8.13;;;24.20;61.60;25.70;101597.00;;;;5127720;27;20228;-88
2023/09/10 05:03:46;;;;;;;8.55;7.50;;;24.20;61.80;25.70;101592.00;;;;5109901;28;20204;-88
2023/09/10 05:06:14;;;;;;;7.43;6.82;;;24.10;61.70;25.80;101586.00;;;;5114060;28;20217;-88
2023/09/10 05:08:43;;;;;;;8.45;7.63;;;24.10;61.60;25.70;101591.00;;;;5110101;28;20706;-88
2023/09/10 05:11:20;;;;;;;8.60;7.68;;;24.10;61.60;25.70;101589.00;;;;5114788;28;20285;-88
2023/09/10 05:13:51;;;;;;;8.60;7.75;;;24.10;61.90;25.70;101572.00;;;;5122787;28;20190;-87
2023/09/10 05:16:22;;;;;;;8.00;7.05;;;24.10;61.80;25.70;101596.00;;;;5125668;28;20627;-88
2023/09/10 05:18:51;;;;;;;8.73;7.70;;;24.10;61.90;25.70;101600.00;;;;5123015;28;20224;-86
2023/09/10 05:21:18;;;;;;;10.30;8.20;;;24.10;61.90;25.70;101578.00;;;;5116843;28;20194;-88
2023/09/10 05:23:49;;;;;;;8.68;7.90;;;24.10;61.80;25.70;101582.00;;;;5119250;28;20827;-89
2023/09/10 05:26:17;;;;;;;8.27;7.45;;;24.10;62.00;25.70;101597.00;;;;5123591;28;20204;-88
2023/09/10 05:28:46;;;;;;;8.88;7.95;;;24.10;62.30;25.70;101590.00;;;;5123264;28;20257;-88
2023/09/10 05:31:14;;;;;;;8.52;7.78;;;24.10;62.10;25.70;101592.00;;;;5127585;28;20249;-88
2023/09/10 05:33:44;;;;;;;8.93;8.07;;;24.00;62.10;25.70;101587.00;;;;5124131;28;20190;-89
2023/09/10 05:36:12;;;;;;;9.48;7.97;;;24.00;62.20;25.70;101603.00;;;;5116103;28;20213;-88
2023/09/10 05:38:40;;;;;;;8.52;7.72;;;24.00;62.20;25.70;101581.00;;;;5120721;28;20225;-89
2023/09/10 05:41:07;;;;;;;8.70;7.82;;;24.10;62.30;25.70;101583.00;;;;5124576;28;20225;-89
2023/09/10 05:43:36;;;;;;;9.43;8.43;;;24.00;62.20;25.70;101584.00;;;;5124363;28;20221;-89
2023/09/10 05:46:03;;;;;;;8.38;7.55;;;24.00;62.30;25.80;101597.00;;;;5104284;28;20221;-89
2023/09/10 05:48:33;;;;;;;9.55;8.10;;;24.10;62.40;25.80;101593.00;;;;5104949;28;20190;-89
2023/09/10 05:51:02;;;;;;;8.65;7.70;;;24.10;62.50;25.80;101592.00;;;;5123241;28;20575;-88
2023/09/10 05:53:35;;;;;;;8.60;7.78;;;24.10;62.40;25.80;101599.00;;;;5124241;28;20297;-89
2023/09/10 05:56:04;;;;;;;8.82;7.93;;;24.10;62.60;25.80;101602.00;;;;5116071;28;20196;-87
2023/09/10 05:58:33;;;;;;;9.63;8.00;;;24.20;62.60;25.90;101607.00;;;;5112458;28;20209;-85
2023/09/10 06:01:10;;;;;;;9.50;8.50;;;24.20;62.50;25.80;101606.00;;;;5129733;27;20231;-86
2023/09/10 06:03:38;;;;;;;13.15;8.50;;;24.20;62.80;25.90;101607.00;;;;5103473;28;20200;-87
2023/09/10 06:06:06;;;;;;;7.95;7.15;;;24.20;62.50;25.90;101606.00;;;;5105257;28;20225;-87
2023/09/10 06:08:34;;;;;;;8.98;8.18;;;24.20;62.50;26.00;101607.00;;;;5114084;28;20684;-87
2023/09/10 06:11:01;;;;;;;8.68;7.80;;;24.30;62.70;26.00;101606.00;;;;5113502;28;20212;-86
2023/09/10 06:13:30;;;;;;;9.60;8.65;;;24.30;62.60;26.10;101605.00;;;;5114409;28;20189;-87
2023/09/10 06:16:01;;;;;;;10.25;9.25;;;24.40;62.70;26.10;101614.00;;;;5115146;28;20260;-89
2023/09/10 06:18:28;;;;;;;10.13;8.32;;;24.40;62.60;26.10;101607.00;;;;5119109;28;20241;-89
2023/09/10 06:20:56;;;;;;;10.50;9.30;;;24.40;62.60;26.20;101605.00;;;;5119074;28;20193;-86
2023/09/10 06:23:24;;;;;;;9.88;8.93;;;24.50;62.70;26.20;101616.00;;;;5112764;27;20205;-87
2023/09/10 06:25:55;;;;;;;11.52;9.52;;;24.50;62.70;26.30;101619.00;;;;5117329;28;20304;-87
2023/09/10 06:28:24;;;;;;;12.02;10.13;;;24.60;62.70;26.30;101616.00;;;;5113036;28;20204;-88
2023/09/10 06:30:51;;;;;;;11.73;9.70;;;24.60;62.50;26.40;101622.00;;;;5105102;28;20716;-86
2023/09/10 06:33:19;;;;;;;9.40;8.50;;;24.70;62.60;26.40;101617.00;;;;5113043;28;20194;-88
2023/09/10 06:35:46;;;;;;;9.60;8.70;;;24.80;62.50;26.50;101627.00;;;;5109698;28;20205;-88
2023/09/10 06:38:13;;;;;;;12.45;9.80;;;24.80;62.50;26.60;101623.00;;;;5112505;28;20201;-89
2023/09/10 06:40:42;;;;;;;11.10;10.02;;;24.90;63.20;26.60;101622.00;;;;5106270;28;20206;-89
2023/09/10 06:43:09;;;;;;;11.70;10.50;;;25.00;62.50;26.70;101633.00;;;;5110009;28;20350;-87
2023/09/10 06:45:36;;;;;;;11.32;9.77;;;25.00;62.40;26.80;101636.00;;;;5113766;28;20235;-88
2023/09/10 06:48:05;;;;;;;13.77;9.73;;;25.10;62.40;26.80;101637.00;;;;5103469;28;20765;-88
2023/09/10 06:50:34;;;;;;;11.32;10.05;;;25.20;62.50;26.90;101643.00;;;;5111998;28;20548;-89
2023/09/10 06:53:02;;;;;;;10.35;9.32;;;25.20;62.40;27.00;101638.00;;;;5104902;28;20202;-88
2023/09/10 06:55:31;;;;;;;11.50;10.27;;;25.30;62.40;27.00;101635.00;;;;5093299;28;20198;-86
2023/09/10 06:58:00;;;;;;;11.50;10.27;;;25.40;62.40;27.10;101629.00;;;;5105616;28;20277;-87
2023/09/10 07:00:28;;;;;;;11.32;10.15;;;25.50;62.40;27.20;101645.00;;;;5115002;28;20230;-89
2023/09/10 07:02:56;;;;;;;13.13;10.25;;;25.50;62.30;27.30;101637.00;;;;5103538;28;20474;-86
2023/09/10 07:05:23;;;;;;;11.68;9.85;;;25.60;62.30;27.30;101643.00;;;;5091762;28;20194;-86
2023/09/10 07:07:53;;;;;;;12.75;11.40;;;25.70;62.30;27.40;101643.00;;;;5093337;28;20573;-85
2023/09/10 07:10:21;;;;;;;12.60;11.30;;;25.80;62.40;27.50;101636.00;;;;5104354;28;20276;-87
2023/09/10 07:12:48;;;;;;;14.30;10.73;;;25.80;62.20;27.50;101641.00;;;;5097288;28;20204;-87
2023/09/10 07:15:17;;;;;;;14.07;12.55;;;25.90;62.20;27.60;101647.00;;;;5108840;27;20197;-87
2023/09/10 07:17:45;;;;;;;12.63;10.88;;;26.00;62.20;27.70;101644.00;;;;5112064;28;20193;-89
2023/09/10 07:20:13;;;;;;;15.32;13.05;;;26.10;62.20;27.80;101648.00;;;;5115066;28;20201;-87
2023/09/10 07:22:41;;;;;;;13.65;12.18;;;26.20;62.20;27.90;101638.00;;;;5112194;28;20652;-87
2023/09/10 07:25:09;;;;;;;17.25;12.63;;;26.20;62.10;27.90;101640.00;;;;5113214;28;20213;-87
2023/09/10 07:27:38;;;;;;;15.15;13.65;;;26.30;62.20;28.00;101647.00;;;;5099972;28;20218;-87
2023/09/10 07:30:07;;;;;;;14.82;13.23;;;26.40;62.10;28.10;101641.00;;;;5093975;28;20196;-89
2023/09/10 07:32:37;;;;;;;13.80;12.48;;;26.50;62.10;28.10;101650.00;;;;5093146;28;20286;-89
2023/09/10 07:35:04;;;;;;;17.05;13.70;;;26.60;62.10;28.20;101648.00;;;;5099762;28;20201;-88
2023/09/10 07:37:35;;;;;;;15.77;14.02;;;26.60;62.00;28.30;101646.00;;;;5113354;28;20204;-89
2023/09/10 07:40:02;;;;;;;16.23;13.55;;;26.70;61.90;28.40;101641.00;;;;5098448;28;20206;-89
2023/09/10 07:42:30;;;;;;;15.80;14.10;;;26.80;61.90;28.50;101648.00;;;;5094913;28;20198;-87
2023/09/10 07:44:57;;;;;;;14.68;13.18;;;26.90;61.80;28.50;101646.00;;;;5112708;28;20228;-87
2023/09/10 07:47:24;;;;;;;19.35;14.02;;;26.90;61.70;28.60;101644.00;;;;5112071;28;20229;-86
2023/09/10 07:49:52;;;;;;;17.85;14.35;;;27.00;61.70;28.70;101648.00;;;;5112735;28;20204;-87
2023/09/10 07:52:22;;;;;;;14.50;13.05;;;27.10;61.50;28.70;101654.00;;;;5110681;28;20197;-89
2023/09/10 07:54:49;;;;;;;21.40;14.60;;;27.20;61.40;28.80;101652.00;;;;5114673;28;20212;-87
2023/09/10 07:57:18;;;;;;;26.83;16.17;;;27.20;61.30;28.90;101654.00;;;;5111187;28;20559;-89
2023/09/10 07:59:45;;;;;;;18.58;14.60;;;27.30;61.20;29.00;101661.00;;;;5098125;28;20234;-90
2023/09/10 08:02:13;;;;;;;15.35;13.75;;;27.40;61.10;29.10;101660.00;;;;5116479;28;20204;-90
2023/09/10 08:04:43;;;;;;;18.40;14.25;;;27.50;61.10;29.10;101658.00;;;;5116004;28;20573;-92
2023/09/10 08:07:12;;;;;;;16.60;14.15;;;27.50;60.90;29.20;101666.00;;;;5109843;28;20222;-90
2023/09/10 08:09:40;;;;;;;16.75;14.57;;;27.60;60.80;29.30;101655.00;;;;5098579;28;20228;-91
2023/09/10 08:12:08;;;;;;;17.17;12.77;;;27.70;60.80;29.40;101666.00;;;;5113337;28;20193;-89
2023/09/10 08:14:38;;;;;;;16.50;14.15;;;27.80;60.70;29.50;101659.00;;;;5115818;28;20193;-87
2023/09/10 08:17:05;;;;;;;16.73;14.15;;;27.90;60.50;29.60;101666.00;;;;5111975;28;20640;-89
2023/09/10 08:19:33;;;;;;;15.23;13.18;;;28.00;60.50;29.70;101664.00;;;;5100581;28;20178;-90
2023/09/10 08:22:01;;;;;;;16.70;14.52;;;28.10;60.60;29.80;101661.00;;;;5103448;28;20194;-90
2023/09/10 08:24:29;;;;;;;16.95;14.32;;;28.10;60.40;29.80;101666.00;;;;5109668;28;20197;-88
2023/09/10 08:27:03;;;;;;;15.48;13.85;;;28.30;60.30;29.90;101669.00;;;;5110742;28;20213;-88
2023/09/10 08:29:30;;;;;;;16.20;13.00;;;28.30;59.90;30.00;101664.00;;;;5109392;28;20204;-87
2023/09/10 08:31:58;;;;;;;15.48;13.43;;;28.40;59.90;30.10;101662.00;;;;5108229;28;20216;-86
2023/09/10 08:34:26;;;;;;;14.63;12.88;;;28.50;59.80;30.20;101667.00;;;;5108882;28;20335;-87
2023/09/10 08:36:53;;;;;;;13.60;12.18;;;28.60;59.60;30.30;101664.00;;;;5105341;28;20652;-84
2023/09/10 08:39:20;;;;;;;15.77;12.23;;;28.70;59.50;30.40;101664.00;;;;5108948;28;20189;-86
2023/09/10 08:41:58;;;;;;;15.45;12.95;;;28.80;59.40;30.40;101662.00;;;;5100157;28;20577;-88
2023/09/10 08:44:29;;;;;;;12.93;11.60;;;28.90;59.00;30.50;101658.00;;;;5091532;28;20213;-86
2023/09/10 08:47:01;;;;;;;14.75;12.77;;;29.00;59.10;30.60;101659.00;;;;5110058;28;20274;-87
2023/09/10 08:49:34;;;;;;;13.43;11.27;;;29.10;59.00;30.70;101663.00;;;;5108847;28;20205;-84
2023/09/10 08:52:02;;;;;;;26.35;11.60;;;29.20;58.70;30.80;101654.00;;;;5102061;28;20646;-84
2023/09/10 08:54:29;;;;;;;14.63;11.93;;;29.20;58.80;30.90;101652.00;;;;5102153;28;20213;-86
2023/09/10 08:56:59;;;;;;;14.20;12.65;;;29.30;58.70;31.00;101659.00;;;;5109529;28;20194;-85
2023/09/10 08:59:27;;;;;;;14.50;11.63;;;29.40;58.50;31.10;101650.00;;;;5109272;28;20591;-86
2023/09/10 09:01:56;;;;;;;12.25;11.00;;;29.50;58.30;31.20;101651.00;;;;5109748;28;20853;-86
2023/09/10 09:04:25;;;;;;;12.20;10.52;;;29.60;58.20;31.30;101654.00;;;;5102507;28;20193;-86
2023/09/10 09:06:56;;;;;;;12.35;9.90;;;29.70;58.10;31.40;101660.00;;;;5104321;28;20683;-86
2023/09/10 09:09:28;;;;;;;11.77;10.02;;;29.80;58.00;31.50;101652.00;;;;5094914;28;20229;-86
2023/09/10 09:11:58;;;;;;;10.88;9.68;;;29.90;57.90;31.60;101658.00;;;;5092478;28;20190;-86
2023/09/10 09:14:28;;;;;;;10.65;9.55;;;30.00;57.90;31.70;101653.00;;;;5105744;28;20730;-87
2023/09/10 09:16:57;;;;;;;11.93;10.23;;;30.10;57.80;31.80;101659.00;;;;5110949;28;20652;-90
2023/09/10 09:19:30;;;;;;;10.45;9.05;;;30.30;57.60;31.90;101647.00;;;;5098126;28;20194;-87
2023/09/10 09:22:00;;;;;;;20.83;9.70;;;30.40;57.30;32.00;101653.00;;;;5109463;28;20197;-90
2023/09/10 09:24:29;;;;;;;11.05;9.95;;;30.50;57.10;32.10;101645.00;;;;5098366;28;20201;-93
2023/09/10 09:27:00;;;;;;;11.63;9.80;;;30.60;56.80;32.20;101647.00;;;;5093549;28;20221;-87
2023/09/10 09:29:34;;;;;;;9.93;8.95;;;30.70;56.70;32.20;101653.00;;;;5109850;28;20204;-92
2023/09/10 09:32:01;;;;;;;12.10;10.60;;;30.80;56.20;32.40;101648.00;;;;5111561;28;20204;-91
2023/09/10 09:34:31;;;;;;;11.23;9.73;;;30.80;56.40;32.40;101647.00;;;;5110211;28;20981;-91
2023/09/10 09:36:59;;;;;;;12.98;9.82;;;31.00;56.10;32.50;101651.00;;;;5111180;28;20189;-88
2023/09/10 09:39:33;;;;;;;10.70;9.43;;;31.10;56.20;32.60;101642.00;;;;5108703;28;20193;-94
2023/09/10 09:42:13;;;;;;;10.00;9.00;;;31.20;55.70;32.60;101638.00;;;;5107450;28;20221;-92
2023/09/10 09:44:44;;;;;;;12.85;8.77;;;31.30;55.20;32.80;101640.00;;;;5108150;28;20189;-85
2023/09/10 09:47:13;;;;;;;10.10;9.13;;;31.30;55.70;32.90;101638.00;;;;5110128;28;20220;-90
2023/09/10 09:49:49;;;;;;;10.98;9.77;;;31.40;55.50;32.90;101644.00;;;;5105083;28;20209;-90
2023/09/10 09:52:24;;;;;;;12.93;9.15;;;31.60;55.20;33.00;101645.00;;;;5109927;28;20197;-92
2023/09/10 09:54:57;;;;;;;11.15;9.52;;;31.60;54.90;33.10;101640.00;;;;5112644;28;20193;-91
2023/09/10 09:57:46;;;;;;;10.02;8.48;;;31.70;54.90;33.20;101638.00;;;;5110588;28;20192;-91
2023/09/10 10:00:14;;;;;;;11.07;9.27;;;31.80;54.50;33.40;101638.00;;;;5109241;28;20235;-90
2023/09/10 10:02:44;;;;;;;10.88;8.88;;;31.90;55.00;33.50;101638.00;;;;5108352;28;20213;-91
2023/09/10 10:05:16;;;;;;;10.70;9.20;;;32.00;54.90;33.60;101630.00;;;;5107048;28;20555;-91
2023/09/10 10:07:53;;;;;;;8.18;7.38;;;32.10;54.50;33.60;101631.00;;;;5104752;28;20570;-90
2023/09/10 10:10:20;;;;;;;9.85;7.28;;;32.30;54.40;33.80;101627.00;;;;5104551;28;20269;-92
2023/09/10 10:12:53;;;;;;;9.35;7.90;;;32.30;54.80;33.90;101630.00;;;;5112226;28;20201;-92
2023/09/10 10:15:23;;;;;;;9.10;8.18;;;32.50;55.00;34.00;101618.00;;;;5113690;28;20193;-87
2023/09/10 10:17:52;;;;;;;11.27;10.02;;;32.60;54.50;34.10;101619.00;;;;5108873;28;20193;-86
2023/09/10 10:20:21;;;;;;;10.27;9.23;;;32.70;54.30;34.20;101620.00;;;;5111964;28;20193;-87
2023/09/10 10:22:49;;;;;;;9.50;8.43;;;32.80;54.00;34.20;101620.00;;;;5110191;28;20200;-86
2023/09/10 10:25:16;;;;;;;10.32;9.18;;;32.80;54.00;34.30;101625.00;;;;5110421;28;20189;-84
2023/09/10 10:27:44;;;;;;;10.40;8.50;;;32.90;53.90;34.40;101628.00;;;;5110411;28;20213;-85
2023/09/10 10:30:14;;;;;;;10.13;9.13;;;33.00;53.90;34.40;101628.00;;;;5110369;28;20205;-86
2023/09/10 10:32:44;;;;;;;8.60;7.65;;;33.00;53.50;34.50;101630.00;;;;5102528;28;20200;-86
2023/09/10 10:35:12;;;;;;;15.20;8.60;;;33.10;53.40;34.60;101622.00;;;;5111120;28;20209;-85
2023/09/10 10:37:52;;;;;;;10.50;7.93;;;33.20;53.50;34.60;101621.00;;;;5110375;28;20197;-86
2023/09/10 10:40:28;;;;;;;9.85;8.85;;;33.30;53.00;34.70;101621.00;;;;5112540;28;20663;-86
2023/09/10 10:43:03;;;;;;;9.77;7.72;;;33.40;53.20;34.80;101617.00;;;;5112556;28;20197;-87
2023/09/10 10:45:34;;;;;;;9.85;8.85;;;33.50;53.20;34.90;101613.00;;;;5108447;28;20196;-88
2023/09/10 10:48:12;;;;;;;11.48;9.05;;;33.60;52.60;34.90;101613.00;;;;5091995;28;20205;-86
2023/09/10 10:50:42;;;;;;;14.50;8.23;;;33.60;52.60;35.10;101618.00;;;;5099395;28;20201;-86
2023/09/10 10:53:18;;;;;;;8.55;7.63;;;33.70;52.80;35.10;101618.00;;;;5111053;28;20197;-87